sensor_id;sensor_type;location;lat;lon;timestamp;P1;durP1;ratioP1;P2;durP2;ratioP2
39890;SDS011;25564;53.312;9.790;2023-06-22T00:00:20;5.53;;;3.10;;
39890;SDS011;25564;53.312;9.790;2023-06-22T00:02:52;8.30;;;3.53;;
39890;SDS011;25564;53.312;9.790;2023-06-22T00:05:23;6.40;;;2.93;;
39890;SDS011;25564;53.312;9.790;2023-06-22T00:07:55;6.77;;;3.07;;
39890;SDS011;25564;53.312;9.790;2023-06-22T00:10:26;6.67;;;3.07;;
39890;SDS011;25564;53.312;9.790;2023-06-22T00:12:58;5.70;;;3.27;;
39890;SDS011;25564;53.312;9.790;2023-06-22T00:15:31;4.70;;;2.83;;
39890;SDS011;25564;53.312;9.790;2023-06-22T00:18:02;4.00;;;2.73;;
39890;SDS011;25564;53.312;9.790;2023-06-22T00:20:34;5.40;;;3.13;;
39890;SDS011;25564;53.312;9.790;2023-06-22T00:23:08;4.83;;;2.73;;
39890;SDS011;25564;53.312;9.790;2023-06-22T00:25:39;5.20;;;2.87;;
39890;SDS011;25564;53.312;9.790;2023-06-22T00:28:11;6.03;;;2.97;;
39890;SDS011;25564;53.312;9.790;2023-06-22T00:30:43;7.80;;;3.50;;
39890;SDS011;25564;53.312;9.790;2023-06-22T00:33:14;6.47;;;3.13;;
39890;SDS011;25564;53.312;9.790;2023-06-22T00:35:47;4.97;;;3.00;;
39890;SDS011;25564;53.312;9.790;2023-06-22T00:38:19;6.23;;;3.17;;
39890;SDS011;25564;53.312;9.790;2023-06-22T00:40:50;6.73;;;3.00;;
39890;SDS011;25564;53.312;9.790;2023-06-22T00:43:22;5.43;;;2.90;;
39890;SDS011;25564;53.312;9.790;2023-06-22T00:45:55;4.37;;;2.83;;
39890;SDS011;25564;53.312;9.790;2023-06-22T00:48:27;6.00;;;3.03;;
39890;SDS011;25564;53.312;9.790;2023-06-22T00:50:59;7.33;;;3.33;;
39890;SDS011;25564;53.312;9.790;2023-06-22T00:53:32;6.93;;;3.47;;
39890;SDS011;25564;53.312;9.790;2023-06-22T00:56:06;5.00;;;3.17;;
39890;SDS011;25564;53.312;9.790;2023-06-22T00:58:40;4.97;;;3.10;;
39890;SDS011;25564;53.312;9.790;2023-06-22T01:01:13;5.10;;;3.37;;
39890;SDS011;25564;53.312;9.790;2023-06-22T01:03:45;7.40;;;3.17;;
39890;SDS011;25564;53.312;9.790;2023-06-22T01:06:19;5.07;;;3.33;;
39890;SDS011;25564;53.312;9.790;2023-06-22T01:09:03;5.53;;;3.03;;
39890;SDS011;25564;53.312;9.790;2023-06-22T01:11:45;4.97;;;3.13;;
39890;SDS011;25564;53.312;9.790;2023-06-22T01:14:23;6.03;;;3.97;;
39890;SDS011;25564;53.312;9.790;2023-06-22T01:16:59;8.20;;;3.40;;
39890;SDS011;25564;53.312;9.790;2023-06-22T01:19:43;5.17;;;3.10;;
39890;SDS011;25564;53.312;9.790;2023-06-22T01:22:30;3.60;;;2.43;;
39890;SDS011;25564;53.312;9.790;2023-06-22T01:25:11;6.33;;;3.00;;
39890;SDS011;25564;53.312;9.790;2023-06-22T01:27:56;4.70;;;3.20;;
39890;SDS011;25564;53.312;9.790;2023-06-22T01:30:36;6.57;;;3.20;;
39890;SDS011;25564;53.312;9.790;2023-06-22T01:33:10;5.60;;;3.23;;
39890;SDS011;25564;53.312;9.790;2023-06-22T01:35:44;5.60;;;3.43;;
39890;SDS011;25564;53.312;9.790;2023-06-22T01:38:15;5.80;;;3.60;;
39890;SDS011;25564;53.312;9.790;2023-06-22T01:40:47;5.53;;;3.43;;
39890;SDS011;25564;53.312;9.790;2023-06-22T01:43:19;5.23;;;2.90;;
39890;SDS011;25564;53.312;9.790;2023-06-22T01:45:54;5.28;;;2.67;;
39890;SDS011;25564;53.312;9.790;2023-06-22T01:48:27;6.80;;;3.13;;
39890;SDS011;25564;53.312;9.790;2023-06-22T01:51:00;5.80;;;2.97;;
39890;SDS011;25564;53.312;9.790;2023-06-22T01:53:31;6.33;;;3.60;;
39890;SDS011;25564;53.312;9.790;2023-06-22T01:56:03;7.63;;;3.37;;
39890;SDS011;25564;53.312;9.790;2023-06-22T01:58:35;6.37;;;3.77;;
39890;SDS011;25564;53.312;9.790;2023-06-22T02:01:14;5.90;;;3.47;;
39890;SDS011;25564;53.312;9.790;2023-06-22T02:04:00;8.93;;;3.20;;
39890;SDS011;25564;53.312;9.790;2023-06-22T02:06:37;5.03;;;3.30;;
39890;SDS011;25564;53.312;9.790;2023-06-22T02:09:15;4.53;;;2.88;;
39890;SDS011;25564;53.312;9.790;2023-06-22T02:11:48;4.43;;;3.00;;
39890;SDS011;25564;53.312;9.790;2023-06-22T02:14:25;5.43;;;3.17;;
39890;SDS011;25564;53.312;9.790;2023-06-22T02:16:57;5.93;;;3.63;;
39890;SDS011;25564;53.312;9.790;2023-06-22T02:19:32;5.03;;;3.00;;
39890;SDS011;25564;53.312;9.790;2023-06-22T02:22:04;5.53;;;3.50;;
39890;SDS011;25564;53.312;9.790;2023-06-22T02:24:36;7.13;;;3.73;;
39890;SDS011;25564;53.312;9.790;2023-06-22T02:27:07;5.40;;;3.13;;
39890;SDS011;25564;53.312;9.790;2023-06-22T02:29:39;5.73;;;3.20;;
39890;SDS011;25564;53.312;9.790;2023-06-22T02:32:10;5.73;;;3.73;;
39890;SDS011;25564;53.312;9.790;2023-06-22T02:34:41;5.90;;;3.20;;
39890;SDS011;25564;53.312;9.790;2023-06-22T02:37:14;7.07;;;3.43;;
39890;SDS011;25564;53.312;9.790;2023-06-22T02:39:45;5.93;;;3.33;;
39890;SDS011;25564;53.312;9.790;2023-06-22T02:42:17;6.07;;;3.93;;
39890;SDS011;25564;53.312;9.790;2023-06-22T02:44:51;6.47;;;3.50;;
39890;SDS011;25564;53.312;9.790;2023-06-22T02:47:23;6.47;;;3.60;;
39890;SDS011;25564;53.312;9.790;2023-06-22T02:49:54;5.30;;;3.23;;
39890;SDS011;25564;53.312;9.790;2023-06-22T02:52:25;5.93;;;3.17;;
39890;SDS011;25564;53.312;9.790;2023-06-22T02:54:57;6.43;;;3.43;;
39890;SDS011;25564;53.312;9.790;2023-06-22T02:57:29;5.03;;;3.13;;
39890;SDS011;25564;53.312;9.790;2023-06-22T03:00:02;8.40;;;3.60;;
39890;SDS011;25564;53.312;9.790;2023-06-22T03:02:48;6.27;;;3.33;;
39890;SDS011;25564;53.312;9.790;2023-06-22T03:05:20;5.57;;;3.40;;
39890;SDS011;25564;53.312;9.790;2023-06-22T03:07:51;4.53;;;2.90;;
39890;SDS011;25564;53.312;9.790;2023-06-22T03:10:22;5.33;;;3.00;;
39890;SDS011;25564;53.312;9.790;2023-06-22T03:12:54;7.27;;;3.80;;
39890;SDS011;25564;53.312;9.790;2023-06-22T03:15:26;5.53;;;3.40;;
39890;SDS011;25564;53.312;9.790;2023-06-22T03:18:00;4.70;;;3.57;;
39890;SDS011;25564;53.312;9.790;2023-06-22T03:20:32;9.43;;;3.73;;
39890;SDS011;25564;53.312;9.790;2023-06-22T03:23:04;5.20;;;3.43;;
39890;SDS011;25564;53.312;9.790;2023-06-22T03:25:36;7.50;;;3.70;;
39890;SDS011;25564;53.312;9.790;2023-06-22T03:28:07;5.53;;;3.40;;
39890;SDS011;25564;53.312;9.790;2023-06-22T03:30:38;5.00;;;3.10;;
39890;SDS011;25564;53.312;9.790;2023-06-22T03:33:10;6.10;;;3.10;;
39890;SDS011;25564;53.312;9.790;2023-06-22T03:35:41;7.37;;;3.50;;
39890;SDS011;25564;53.312;9.790;2023-06-22T03:38:13;5.83;;;3.73;;
39890;SDS011;25564;53.312;9.790;2023-06-22T03:40:44;5.93;;;3.67;;
39890;SDS011;25564;53.312;9.790;2023-06-22T03:43:16;7.50;;;3.10;;
39890;SDS011;25564;53.312;9.790;2023-06-22T03:45:47;5.17;;;3.50;;
39890;SDS011;25564;53.312;9.790;2023-06-22T03:48:18;7.53;;;3.77;;
39890;SDS011;25564;53.312;9.790;2023-06-22T03:50:50;4.90;;;3.20;;
39890;SDS011;25564;53.312;9.790;2023-06-22T03:53:21;7.77;;;3.53;;
39890;SDS011;25564;53.312;9.790;2023-06-22T03:55:52;6.60;;;4.17;;
39890;SDS011;25564;53.312;9.790;2023-06-22T03:58:24;5.20;;;3.37;;
39890;SDS011;25564;53.312;9.790;2023-06-22T04:00:55;5.73;;;3.30;;
39890;SDS011;25564;53.312;9.790;2023-06-22T04:03:27;6.67;;;3.53;;
39890;SDS011;25564;53.312;9.790;2023-06-22T04:05:59;8.57;;;3.73;;
39890;SDS011;25564;53.312;9.790;2023-06-22T04:08:30;6.20;;;3.50;;
39890;SDS011;25564;53.312;9.790;2023-06-22T04:11:03;9.40;;;4.40;;
39890;SDS011;25564;53.312;9.790;2023-06-22T04:13:34;5.73;;;3.77;;
39890;SDS011;25564;53.312;9.790;2023-06-22T04:16:06;7.10;;;3.97;;
39890;SDS011;25564;53.312;9.790;2023-06-22T04:18:37;7.70;;;3.50;;
39890;SDS011;25564;53.312;9.790;2023-06-22T04:21:09;6.40;;;3.87;;
39890;SDS011;25564;53.312;9.790;2023-06-22T04:23:41;6.17;;;3.17;;
39890;SDS011;25564;53.312;9.790;2023-06-22T04:26:14;6.43;;;3.83;;
39890;SDS011;25564;53.312;9.790;2023-06-22T04:28:45;6.50;;;3.50;;
39890;SDS011;25564;53.312;9.790;2023-06-22T04:31:22;8.35;;;3.90;;
39890;SDS011;25564;53.312;9.790;2023-06-22T04:36:37;5.70;;;3.57;;
39890;SDS011;25564;53.312;9.790;2023-06-22T04:39:11;5.20;;;3.57;;
39890;SDS011;25564;53.312;9.790;2023-06-22T04:41:42;6.60;;;3.78;;
39890;SDS011;25564;53.312;9.790;2023-06-22T04:44:15;10.30;;;4.20;;
39890;SDS011;25564;53.312;9.790;2023-06-22T04:46:58;11.18;;;5.07;;
39890;SDS011;25564;53.312;9.790;2023-06-22T04:49:35;7.25;;;4.38;;
39890;SDS011;25564;53.312;9.790;2023-06-22T04:52:09;7.88;;;4.68;;
39890;SDS011;25564;53.312;9.790;2023-06-22T04:54:42;9.73;;;4.45;;
39890;SDS011;25564;53.312;9.790;2023-06-22T04:57:18;6.93;;;4.22;;
39890;SDS011;25564;53.312;9.790;2023-06-22T04:59:50;7.53;;;4.47;;
39890;SDS011;25564;53.312;9.790;2023-06-22T05:02:21;6.60;;;3.88;;
39890;SDS011;25564;53.312;9.790;2023-06-22T05:04:54;10.05;;;4.80;;
39890;SDS011;25564;53.312;9.790;2023-06-22T05:07:28;9.23;;;4.35;;
39890;SDS011;25564;53.312;9.790;2023-06-22T05:10:00;7.78;;;4.25;;
39890;SDS011;25564;53.312;9.790;2023-06-22T05:12:32;8.07;;;4.82;;
39890;SDS011;25564;53.312;9.790;2023-06-22T05:15:04;6.85;;;4.22;;
39890;SDS011;25564;53.312;9.790;2023-06-22T05:17:37;8.15;;;4.03;;
39890;SDS011;25564;53.312;9.790;2023-06-22T05:20:14;7.53;;;4.93;;
39890;SDS011;25564;53.312;9.790;2023-06-22T05:22:49;8.98;;;4.72;;
39890;SDS011;25564;53.312;9.790;2023-06-22T05:25:20;9.80;;;4.43;;
39890;SDS011;25564;53.312;9.790;2023-06-22T05:27:51;7.50;;;4.35;;
39890;SDS011;25564;53.312;9.790;2023-06-22T05:30:25;8.82;;;4.95;;
39890;SDS011;25564;53.312;9.790;2023-06-22T05:33:05;7.20;;;4.05;;
39890;SDS011;25564;53.312;9.790;2023-06-22T05:35:37;8.23;;;3.95;;
39890;SDS011;25564;53.312;9.790;2023-06-22T05:38:08;6.47;;;3.80;;
39890;SDS011;25564;53.312;9.790;2023-06-22T05:40:39;6.60;;;4.10;;
39890;SDS011;25564;53.312;9.790;2023-06-22T05:43:17;5.53;;;3.53;;
39890;SDS011;25564;53.312;9.790;2023-06-22T05:45:48;11.65;;;4.28;;
39890;SDS011;25564;53.312;9.790;2023-06-22T05:48:19;6.90;;;3.42;;
39890;SDS011;25564;53.312;9.790;2023-06-22T05:50:51;7.57;;;4.10;;
39890;SDS011;25564;53.312;9.790;2023-06-22T05:53:22;6.50;;;3.80;;
39890;SDS011;25564;53.312;9.790;2023-06-22T05:55:53;7.20;;;3.95;;
39890;SDS011;25564;53.312;9.790;2023-06-22T05:58:25;6.35;;;3.80;;
39890;SDS011;25564;53.312;9.790;2023-06-22T06:00:56;5.50;;;3.50;;
39890;SDS011;25564;53.312;9.790;2023-06-22T06:03:27;6.88;;;2.92;;
39890;SDS011;25564;53.312;9.790;2023-06-22T06:06:00;4.60;;;2.92;;
39890;SDS011;25564;53.312;9.790;2023-06-22T06:08:33;4.80;;;3.10;;
39890;SDS011;25564;53.312;9.790;2023-06-22T06:11:05;5.40;;;3.05;;
39890;SDS011;25564;53.312;9.790;2023-06-22T06:13:37;6.00;;;2.92;;
39890;SDS011;25564;53.312;9.790;2023-06-22T06:16:08;4.63;;;2.35;;
39890;SDS011;25564;53.312;9.790;2023-06-22T06:18:39;3.92;;;2.60;;
39890;SDS011;25564;53.312;9.790;2023-06-22T06:21:11;5.53;;;2.42;;
39890;SDS011;25564;53.312;9.790;2023-06-22T06:23:42;5.18;;;2.58;;
39890;SDS011;25564;53.312;9.790;2023-06-22T06:26:14;5.00;;;2.50;;
39890;SDS011;25564;53.312;9.790;2023-06-22T06:28:47;4.32;;;2.28;;
39890;SDS011;25564;53.312;9.790;2023-06-22T06:31:19;6.38;;;2.42;;
39890;SDS011;25564;53.312;9.790;2023-06-22T06:33:50;5.43;;;2.70;;
39890;SDS011;25564;53.312;9.790;2023-06-22T06:36:21;3.42;;;2.28;;
39890;SDS011;25564;53.312;9.790;2023-06-22T06:38:53;5.00;;;2.60;;
39890;SDS011;25564;53.312;9.790;2023-06-22T06:41:24;4.30;;;2.30;;
39890;SDS011;25564;53.312;9.790;2023-06-22T06:43:56;3.65;;;2.10;;
39890;SDS011;25564;53.312;9.790;2023-06-22T06:46:27;5.53;;;2.47;;
39890;SDS011;25564;53.312;9.790;2023-06-22T06:48:58;4.97;;;2.55;;
39890;SDS011;25564;53.312;9.790;2023-06-22T06:51:30;7.85;;;2.20;;
39890;SDS011;25564;53.312;9.790;2023-06-22T06:54:01;6.82;;;2.70;;
39890;SDS011;25564;53.312;9.790;2023-06-22T06:56:34;10.88;;;2.72;;
39890;SDS011;25564;53.312;9.790;2023-06-22T06:59:05;4.65;;;2.28;;
39890;SDS011;25564;53.312;9.790;2023-06-22T07:01:37;3.97;;;1.83;;
39890;SDS011;25564;53.312;9.790;2023-06-22T07:04:08;4.68;;;1.88;;
39890;SDS011;25564;53.312;9.790;2023-06-22T07:06:39;3.70;;;1.98;;
39890;SDS011;25564;53.312;9.790;2023-06-22T07:09:11;3.08;;;1.70;;
39890;SDS011;25564;53.312;9.790;2023-06-22T07:11:42;3.97;;;1.75;;
39890;SDS011;25564;53.312;9.790;2023-06-22T07:14:13;3.88;;;2.00;;
39890;SDS011;25564;53.312;9.790;2023-06-22T07:16:45;2.92;;;1.42;;
39890;SDS011;25564;53.312;9.790;2023-06-22T07:19:16;3.33;;;1.60;;
39890;SDS011;25564;53.312;9.790;2023-06-22T07:21:55;2.60;;;1.58;;
39890;SDS011;25564;53.312;9.790;2023-06-22T07:24:26;5.63;;;1.88;;
39890;SDS011;25564;53.312;9.790;2023-06-22T07:26:58;2.55;;;1.40;;
39890;SDS011;25564;53.312;9.790;2023-06-22T07:29:30;4.03;;;1.60;;
39890;SDS011;25564;53.312;9.790;2023-06-22T07:32:02;5.35;;;2.00;;
39890;SDS011;25564;53.312;9.790;2023-06-22T07:34:36;2.70;;;2.05;;
39890;SDS011;25564;53.312;9.790;2023-06-22T07:37:07;3.22;;;1.88;;
39890;SDS011;25564;53.312;9.790;2023-06-22T07:39:38;3.08;;;1.92;;
39890;SDS011;25564;53.312;9.790;2023-06-22T07:42:10;5.30;;;2.53;;
39890;SDS011;25564;53.312;9.790;2023-06-22T07:44:41;4.43;;;1.80;;
39890;SDS011;25564;53.312;9.790;2023-06-22T07:47:13;4.78;;;1.98;;
39890;SDS011;25564;53.312;9.790;2023-06-22T07:49:44;3.30;;;1.90;;
39890;SDS011;25564;53.312;9.790;2023-06-22T07:52:17;3.88;;;2.20;;
39890;SDS011;25564;53.312;9.790;2023-06-22T07:54:48;4.43;;;2.17;;
39890;SDS011;25564;53.312;9.790;2023-06-22T07:57:20;5.25;;;2.15;;
39890;SDS011;25564;53.312;9.790;2023-06-22T07:59:51;3.40;;;1.98;;
39890;SDS011;25564;53.312;9.790;2023-06-22T08:02:23;4.53;;;2.10;;
39890;SDS011;25564;53.312;9.790;2023-06-22T08:04:54;3.80;;;2.28;;
39890;SDS011;25564;53.312;9.790;2023-06-22T08:07:45;3.97;;;2.28;;
39890;SDS011;25564;53.312;9.790;2023-06-22T08:10:19;2.92;;;2.10;;
39890;SDS011;25564;53.312;9.790;2023-06-22T08:12:50;4.38;;;2.20;;
39890;SDS011;25564;53.312;9.790;2023-06-22T08:15:23;3.97;;;1.52;;
39890;SDS011;25564;53.312;9.790;2023-06-22T08:17:54;5.22;;;2.10;;
39890;SDS011;25564;53.312;9.790;2023-06-22T08:20:26;4.22;;;2.20;;
39890;SDS011;25564;53.312;9.790;2023-06-22T08:22:57;4.25;;;2.15;;
39890;SDS011;25564;53.312;9.790;2023-06-22T08:25:34;4.00;;;2.10;;
39890;SDS011;25564;53.312;9.790;2023-06-22T08:28:06;4.55;;;2.78;;
39890;SDS011;25564;53.312;9.790;2023-06-22T08:30:38;4.50;;;2.42;;
39890;SDS011;25564;53.312;9.790;2023-06-22T08:33:09;5.93;;;2.58;;
39890;SDS011;25564;53.312;9.790;2023-06-22T08:35:45;4.05;;;2.05;;
39890;SDS011;25564;53.312;9.790;2023-06-22T08:38:17;4.75;;;2.10;;
39890;SDS011;25564;53.312;9.790;2023-06-22T08:40:50;6.63;;;2.40;;
39890;SDS011;25564;53.312;9.790;2023-06-22T08:43:21;5.45;;;2.53;;
39890;SDS011;25564;53.312;9.790;2023-06-22T08:45:52;5.82;;;1.92;;
39890;SDS011;25564;53.312;9.790;2023-06-22T08:48:24;5.55;;;2.13;;
39890;SDS011;25564;53.312;9.790;2023-06-22T08:50:55;3.90;;;2.20;;
39890;SDS011;25564;53.312;9.790;2023-06-22T08:53:26;5.18;;;2.25;;
39890;SDS011;25564;53.312;9.790;2023-06-22T08:55:58;4.43;;;2.38;;
39890;SDS011;25564;53.312;9.790;2023-06-22T08:58:29;3.13;;;2.08;;
39890;SDS011;25564;53.312;9.790;2023-06-22T09:01:00;7.72;;;3.25;;
39890;SDS011;25564;53.312;9.790;2023-06-22T09:03:32;5.38;;;2.42;;
39890;SDS011;25564;53.312;9.790;2023-06-22T09:06:04;4.82;;;2.50;;
39890;SDS011;25564;53.312;9.790;2023-06-22T09:08:37;4.22;;;2.42;;
39890;SDS011;25564;53.312;9.790;2023-06-22T09:11:08;5.63;;;2.72;;
39890;SDS011;25564;53.312;9.790;2023-06-22T09:13:40;2.88;;;1.90;;
39890;SDS011;25564;53.312;9.790;2023-06-22T09:16:11;4.03;;;1.80;;
39890;SDS011;25564;53.312;9.790;2023-06-22T09:18:46;3.53;;;2.10;;
39890;SDS011;25564;53.312;9.790;2023-06-22T09:21:18;6.35;;;2.67;;
39890;SDS011;25564;53.312;9.790;2023-06-22T09:23:50;3.28;;;2.00;;
39890;SDS011;25564;53.312;9.790;2023-06-22T09:26:22;4.13;;;2.25;;
39890;SDS011;25564;53.312;9.790;2023-06-22T09:28:55;4.40;;;2.00;;
39890;SDS011;25564;53.312;9.790;2023-06-22T09:31:26;3.72;;;2.53;;
39890;SDS011;25564;53.312;9.790;2023-06-22T09:33:57;6.43;;;2.40;;
39890;SDS011;25564;53.312;9.790;2023-06-22T09:36:29;3.88;;;2.10;;
39890;SDS011;25564;53.312;9.790;2023-06-22T09:39:00;4.32;;;2.70;;
39890;SDS011;25564;53.312;9.790;2023-06-22T09:41:37;4.38;;;2.50;;
39890;SDS011;25564;53.312;9.790;2023-06-22T09:44:08;5.80;;;2.55;;
39890;SDS011;25564;53.312;9.790;2023-06-22T09:50:32;4.57;;;2.40;;
39890;SDS011;25564;53.312;9.790;2023-06-22T09:53:04;4.53;;;2.50;;
39890;SDS011;25564;53.312;9.790;2023-06-22T09:55:35;4.50;;;2.40;;
39890;SDS011;25564;53.312;9.790;2023-06-22T09:58:06;4.82;;;2.38;;
39890;SDS011;25564;53.312;9.790;2023-06-22T10:00:38;4.70;;;2.40;;
39890;SDS011;25564;53.312;9.790;2023-06-22T10:03:09;5.70;;;2.92;;
39890;SDS011;25564;53.312;9.790;2023-06-22T10:05:41;5.22;;;2.80;;
39890;SDS011;25564;53.312;9.790;2023-06-22T10:08:14;5.18;;;2.65;;
39890;SDS011;25564;53.312;9.790;2023-06-22T10:10:45;5.57;;;3.13;;
39890;SDS011;25564;53.312;9.790;2023-06-22T10:13:17;4.18;;;2.80;;
39890;SDS011;25564;53.312;9.790;2023-06-22T10:15:50;4.80;;;2.58;;
39890;SDS011;25564;53.312;9.790;2023-06-22T10:18:23;3.75;;;2.70;;
39890;SDS011;25564;53.312;9.790;2023-06-22T10:20:54;4.28;;;2.90;;
39890;SDS011;25564;53.312;9.790;2023-06-22T10:23:25;5.03;;;2.63;;
39890;SDS011;25564;53.312;9.790;2023-06-22T10:25:57;5.07;;;2.80;;
39890;SDS011;25564;53.312;9.790;2023-06-22T10:28:29;5.63;;;2.70;;
39890;SDS011;25564;53.312;9.790;2023-06-22T10:31:03;4.00;;;2.58;;
39890;SDS011;25564;53.312;9.790;2023-06-22T10:33:34;6.90;;;2.85;;
39890;SDS011;25564;53.312;9.790;2023-06-22T10:36:06;4.28;;;2.78;;
39890;SDS011;25564;53.312;9.790;2023-06-22T10:38:37;4.50;;;2.83;;
39890;SDS011;25564;53.312;9.790;2023-06-22T10:41:08;4.35;;;2.60;;
39890;SDS011;25564;53.312;9.790;2023-06-22T10:43:40;5.82;;;3.15;;
39890;SDS011;25564;53.312;9.790;2023-06-22T10:46:12;3.95;;;2.72;;
39890;SDS011;25564;53.312;9.790;2023-06-22T10:48:43;3.90;;;2.50;;
39890;SDS011;25564;53.312;9.790;2023-06-22T10:51:14;5.32;;;3.28;;
39890;SDS011;25564;53.312;9.790;2023-06-22T10:53:46;3.22;;;2.60;;
39890;SDS011;25564;53.312;9.790;2023-06-22T10:56:17;4.13;;;2.63;;
39890;SDS011;25564;53.312;9.790;2023-06-22T10:58:49;5.43;;;2.80;;
39890;SDS011;25564;53.312;9.790;2023-06-22T11:01:21;4.80;;;2.70;;
39890;SDS011;25564;53.312;9.790;2023-06-22T11:04:06;7.35;;;3.13;;
39890;SDS011;25564;53.312;9.790;2023-06-22T11:06:38;4.10;;;2.60;;
39890;SDS011;25564;53.312;9.790;2023-06-22T11:09:09;4.78;;;2.75;;
39890;SDS011;25564;53.312;9.790;2023-06-22T11:11:56;6.63;;;3.15;;
39890;SDS011;25564;53.312;9.790;2023-06-22T11:14:30;4.05;;;2.60;;
39890;SDS011;25564;53.312;9.790;2023-06-22T11:17:02;4.82;;;2.67;;
39890;SDS011;25564;53.312;9.790;2023-06-22T11:19:34;4.28;;;2.25;;
39890;SDS011;25564;53.312;9.790;2023-06-22T11:22:05;4.43;;;2.92;;
39890;SDS011;25564;53.312;9.790;2023-06-22T11:24:37;4.10;;;2.53;;
39890;SDS011;25564;53.312;9.790;2023-06-22T11:27:08;4.65;;;2.90;;
39890;SDS011;25564;53.312;9.790;2023-06-22T11:29:39;5.53;;;3.08;;
39890;SDS011;25564;53.312;9.790;2023-06-22T11:32:11;3.45;;;2.50;;
39890;SDS011;25564;53.312;9.790;2023-06-22T11:34:45;5.90;;;3.03;;
39890;SDS011;25564;53.312;9.790;2023-06-22T11:37:16;5.20;;;3.47;;
39890;SDS011;25564;53.312;9.790;2023-06-22T11:39:47;4.95;;;3.08;;
39890;SDS011;25564;53.312;9.790;2023-06-22T11:42:23;3.85;;;2.97;;
39890;SDS011;25564;53.312;9.790;2023-06-22T11:44:54;4.93;;;3.08;;
39890;SDS011;25564;53.312;9.790;2023-06-22T11:47:29;4.68;;;2.95;;
39890;SDS011;25564;53.312;9.790;2023-06-22T11:50:00;4.65;;;2.78;;
39890;SDS011;25564;53.312;9.790;2023-06-22T11:52:32;4.93;;;3.13;;
39890;SDS011;25564;53.312;9.790;2023-06-22T11:55:05;4.60;;;2.75;;
39890;SDS011;25564;53.312;9.790;2023-06-22T11:57:38;4.78;;;2.85;;
39890;SDS011;25564;53.312;9.790;2023-06-22T12:00:22;4.00;;;2.88;;
39890;SDS011;25564;53.312;9.790;2023-06-22T12:02:59;3.35;;;2.53;;
39890;SDS011;25564;53.312;9.790;2023-06-22T12:05:31;6.97;;;3.05;;
39890;SDS011;25564;53.312;9.790;2023-06-22T12:08:03;4.93;;;3.15;;
39890;SDS011;25564;53.312;9.790;2023-06-22T12:10:34;5.00;;;3.38;;
39890;SDS011;25564;53.312;9.790;2023-06-22T12:13:06;4.70;;;2.88;;
39890;SDS011;25564;53.312;9.790;2023-06-22T12:15:37;5.40;;;2.92;;
39890;SDS011;25564;53.312;9.790;2023-06-22T12:18:08;5.13;;;3.25;;
39890;SDS011;25564;53.312;9.790;2023-06-22T12:20:40;4.63;;;2.78;;
39890;SDS011;25564;53.312;9.790;2023-06-22T12:23:11;4.70;;;3.15;;
39890;SDS011;25564;53.312;9.790;2023-06-22T12:25:44;5.80;;;3.30;;
39890;SDS011;25564;53.312;9.790;2023-06-22T12:28:16;3.90;;;2.88;;
39890;SDS011;25564;53.312;9.790;2023-06-22T12:30:47;4.80;;;2.85;;
39890;SDS011;25564;53.312;9.790;2023-06-22T12:33:18;6.30;;;3.15;;
39890;SDS011;25564;53.312;9.790;2023-06-22T12:35:50;4.68;;;2.80;;
39890;SDS011;25564;53.312;9.790;2023-06-22T12:38:21;4.50;;;2.97;;
39890;SDS011;25564;53.312;9.790;2023-06-22T12:40:53;6.45;;;3.10;;
39890;SDS011;25564;53.312;9.790;2023-06-22T12:43:24;6.05;;;3.60;;
39890;SDS011;25564;53.312;9.790;2023-06-22T12:45:56;5.88;;;3.50;;
39890;SDS011;25564;53.312;9.790;2023-06-22T12:48:27;6.47;;;3.30;;
39890;SDS011;25564;53.312;9.790;2023-06-22T12:50:59;6.00;;;3.47;;
39890;SDS011;25564;53.312;9.790;2023-06-22T12:53:30;5.80;;;3.35;;
39890;SDS011;25564;53.312;9.790;2023-06-22T12:56:02;4.70;;;3.25;;
39890;SDS011;25564;53.312;9.790;2023-06-22T12:58:33;5.30;;;3.15;;
39890;SDS011;25564;53.312;9.790;2023-06-22T13:01:04;4.90;;;3.67;;
39890;SDS011;25564;53.312;9.790;2023-06-22T13:03:36;4.18;;;3.17;;
39890;SDS011;25564;53.312;9.790;2023-06-22T13:06:07;8.57;;;3.25;;
39890;SDS011;25564;53.312;9.790;2023-06-22T13:08:38;4.93;;;3.33;;
39890;SDS011;25564;53.312;9.790;2023-06-22T13:11:13;4.77;;;3.40;;
39890;SDS011;25564;53.312;9.790;2023-06-22T13:13:45;4.30;;;3.33;;
39890;SDS011;25564;53.312;9.790;2023-06-22T13:16:17;5.55;;;3.50;;
39890;SDS011;25564;53.312;9.790;2023-06-22T13:18:48;4.72;;;3.30;;
39890;SDS011;25564;53.312;9.790;2023-06-22T13:21:19;6.07;;;3.50;;
39890;SDS011;25564;53.312;9.790;2023-06-22T13:23:50;5.38;;;3.15;;
39890;SDS011;25564;53.312;9.790;2023-06-22T13:26:22;6.28;;;3.13;;
39890;SDS011;25564;53.312;9.790;2023-06-22T13:28:53;6.20;;;3.63;;
39890;SDS011;25564;53.312;9.790;2023-06-22T13:31:25;5.65;;;3.13;;
39890;SDS011;25564;53.312;9.790;2023-06-22T13:33:56;4.38;;;3.20;;
39890;SDS011;25564;53.312;9.790;2023-06-22T13:36:28;5.22;;;2.90;;
39890;SDS011;25564;53.312;9.790;2023-06-22T13:39:01;7.15;;;3.78;;
39890;SDS011;25564;53.312;9.790;2023-06-22T13:41:33;5.32;;;3.15;;
39890;SDS011;25564;53.312;9.790;2023-06-22T13:44:04;5.15;;;3.35;;
39890;SDS011;25564;53.312;9.790;2023-06-22T13:46:35;4.90;;;3.10;;
39890;SDS011;25564;53.312;9.790;2023-06-22T13:49:07;4.90;;;3.40;;
39890;SDS011;25564;53.312;9.790;2023-06-22T13:51:38;6.20;;;2.85;;
39890;SDS011;25564;53.312;9.790;2023-06-22T13:54:10;6.55;;;3.60;;
39890;SDS011;25564;53.312;9.790;2023-06-22T13:56:59;6.00;;;3.45;;
39890;SDS011;25564;53.312;9.790;2023-06-22T13:59:30;4.68;;;3.30;;
39890;SDS011;25564;53.312;9.790;2023-06-22T14:02:02;4.15;;;3.30;;
39890;SDS011;25564;53.312;9.790;2023-06-22T14:04:33;9.38;;;3.90;;
39890;SDS011;25564;53.312;9.790;2023-06-22T14:07:05;6.50;;;3.83;;
39890;SDS011;25564;53.312;9.790;2023-06-22T14:09:36;5.50;;;2.97;;
39890;SDS011;25564;53.312;9.790;2023-06-22T14:12:08;5.35;;;3.58;;
39890;SDS011;25564;53.312;9.790;2023-06-22T14:14:39;5.28;;;3.65;;
39890;SDS011;25564;53.312;9.790;2023-06-22T14:17:11;7.25;;;4.13;;
39890;SDS011;25564;53.312;9.790;2023-06-22T14:19:42;5.50;;;3.47;;
39890;SDS011;25564;53.312;9.790;2023-06-22T14:22:13;6.68;;;3.33;;
39890;SDS011;25564;53.312;9.790;2023-06-22T14:24:45;7.25;;;3.85;;
39890;SDS011;25564;53.312;9.790;2023-06-22T14:27:17;6.53;;;3.45;;
39890;SDS011;25564;53.312;9.790;2023-06-22T14:29:48;5.40;;;3.67;;
39890;SDS011;25564;53.312;9.790;2023-06-22T14:32:20;6.30;;;3.67;;
39890;SDS011;25564;53.312;9.790;2023-06-22T14:34:51;7.25;;;3.90;;
39890;SDS011;25564;53.312;9.790;2023-06-22T14:37:23;6.60;;;3.75;;
39890;SDS011;25564;53.312;9.790;2023-06-22T14:39:54;5.25;;;3.70;;
39890;SDS011;25564;53.312;9.790;2023-06-22T14:42:26;6.13;;;3.28;;
39890;SDS011;25564;53.312;9.790;2023-06-22T14:44:58;7.43;;;4.18;;
39890;SDS011;25564;53.312;9.790;2023-06-22T14:47:29;4.65;;;3.28;;
39890;SDS011;25564;53.312;9.790;2023-06-22T14:50:02;4.43;;;3.10;;
39890;SDS011;25564;53.312;9.790;2023-06-22T14:52:33;8.40;;;3.60;;
39890;SDS011;25564;53.312;9.790;2023-06-22T14:55:06;7.80;;;3.72;;
39890;SDS011;25564;53.312;9.790;2023-06-22T14:57:37;6.28;;;3.15;;
39890;SDS011;25564;53.312;9.790;2023-06-22T15:00:09;6.07;;;3.35;;
39890;SDS011;25564;53.312;9.790;2023-06-22T15:02:40;7.47;;;3.85;;
39890;SDS011;25564;53.312;9.790;2023-06-22T15:05:12;5.18;;;3.22;;
39890;SDS011;25564;53.312;9.790;2023-06-22T15:07:43;8.15;;;3.33;;
39890;SDS011;25564;53.312;9.790;2023-06-22T15:10:15;7.30;;;3.70;;
39890;SDS011;25564;53.312;9.790;2023-06-22T15:12:46;5.53;;;3.42;;
39890;SDS011;25564;53.312;9.790;2023-06-22T15:15:18;6.47;;;3.60;;
39890;SDS011;25564;53.312;9.790;2023-06-22T15:17:49;5.35;;;3.63;;
39890;SDS011;25564;53.312;9.790;2023-06-22T15:20:21;4.78;;;3.40;;
39890;SDS011;25564;53.312;9.790;2023-06-22T15:22:52;5.18;;;3.35;;
39890;SDS011;25564;53.312;9.790;2023-06-22T15:25:23;5.07;;;3.33;;